createdAt,value
2018-12-23T00:03:44.517Z,1.33
2018-12-23T00:08:02.257Z,1.10
2018-12-23T00:12:19.461Z,0.90
2018-12-23T00:16:36.186Z,1.07
2018-12-23T00:20:53.391Z,0.90
2018-12-23T00:25:10.004Z,1.10
2018-12-23T00:29:27.203Z,1.00
2018-12-23T00:33:44.050Z,1.87
2018-12-23T00:38:00.879Z,1.33
2018-12-23T00:42:17.437Z,1.10
2018-12-23T00:46:35.502Z,1.00
2018-12-23T00:50:53.170Z,1.27
2018-12-23T00:55:10.286Z,1.30
2018-12-23T00:59:28.564Z,1.37
2018-12-23T01:03:45.252Z,1.10
2018-12-23T01:08:02.438Z,1.20
2018-12-23T01:12:20.560Z,1.47
2018-12-23T01:16:37.267Z,2.13
2018-12-23T01:20:55.167Z,2.10
2018-12-23T01:25:12.035Z,1.40
2018-12-23T01:29:28.955Z,1.63
2018-12-23T01:33:45.545Z,1.30
2018-12-23T01:38:02.164Z,1.10
2018-12-23T01:42:18.812Z,1.20
2018-12-23T01:46:35.254Z,1.10
2018-12-23T01:50:52.485Z,1.27
2018-12-23T01:55:10.603Z,0.80
2018-12-23T01:59:27.105Z,1.10
2018-12-23T02:03:43.817Z,0.70
2018-12-23T02:08:00.326Z,0.80
2018-12-23T02:12:18.553Z,0.80
2018-12-23T02:16:35.200Z,0.90
2018-12-23T02:20:52.950Z,1.00
2018-12-23T02:25:09.484Z,1.00
2018-12-23T02:29:28.171Z,1.00
2018-12-23T02:33:44.685Z,1.10
2018-12-23T02:38:01.302Z,0.90
2018-12-23T02:42:19.281Z,0.90
2018-12-23T02:46:36.578Z,0.90
2018-12-23T02:56:12.233Z,1.20
2018-12-23T03:00:42.550Z,0.87
2018-12-23T03:05:13.247Z,0.90
2018-12-23T03:09:43.231Z,0.90
2018-12-23T03:14:13.363Z,0.93
2018-12-23T03:18:43.907Z,1.10
2018-12-23T03:23:13.675Z,0.80
2018-12-23T03:27:43.421Z,1.10
2018-12-23T03:32:13.680Z,0.90
2018-12-23T03:36:43.511Z,0.83
2018-12-23T03:41:14.009Z,1.13
2018-12-23T03:45:43.977Z,1.00
2018-12-23T03:50:14.618Z,1.57
2018-12-23T03:54:44.965Z,0.80
2018-12-23T03:59:14.781Z,0.87
2018-12-23T04:03:45.212Z,1.00
2018-12-23T04:08:17.277Z,0.80
2018-12-23T04:12:46.952Z,0.90
2018-12-23T04:17:17.347Z,1.00
2018-12-23T04:21:47.501Z,0.90
2018-12-23T04:26:17.274Z,0.90
2018-12-23T04:30:46.109Z,0.93
2018-12-23T04:35:16.314Z,1.00
2018-12-23T04:39:46.070Z,0.83
2018-12-23T04:44:16.021Z,1.00
2018-12-23T04:48:46.731Z,1.03
2018-12-23T04:53:16.695Z,1.03
2018-12-23T04:57:46.957Z,1.10
2018-12-23T05:02:17.530Z,1.20
2018-12-23T05:06:48.024Z,0.80
2018-12-23T05:11:18.195Z,0.87
2018-12-23T05:15:47.990Z,1.00
2018-12-23T05:20:17.794Z,0.87
2018-12-23T05:24:46.530Z,1.00
2018-12-23T05:29:16.800Z,1.20
2018-12-23T05:33:46.709Z,0.90
2018-12-23T05:38:16.510Z,1.00
2018-12-23T05:42:49.540Z,1.30
2018-12-23T05:47:21.069Z,1.33
2018-12-23T05:51:50.975Z,1.00
2018-12-23T05:56:19.667Z,1.00
2018-12-23T06:00:49.959Z,0.90
2018-12-23T06:05:20.288Z,0.80
2018-12-23T06:09:51.044Z,0.80
2018-12-23T06:14:20.974Z,0.87
2018-12-23T06:18:50.907Z,0.80
2018-12-23T06:23:20.842Z,0.73
2018-12-23T06:27:51.349Z,0.73
2018-12-23T06:32:21.425Z,1.10
2018-12-23T06:36:51.477Z,0.87
2018-12-23T06:41:21.597Z,0.80
2018-12-23T06:45:52.018Z,0.90
2018-12-23T06:50:21.894Z,0.90
2018-12-23T06:54:52.158Z,0.87
2018-12-23T06:59:22.301Z,0.70
2018-12-23T07:03:52.915Z,0.80
2018-12-23T07:08:22.943Z,0.90
2018-12-23T07:12:53.195Z,0.70
2018-12-23T07:17:23.360Z,1.00
2018-12-23T07:21:53.939Z,0.73
2018-12-23T07:26:22.642Z,0.90
2018-12-23T07:30:53.160Z,1.00
2018-12-23T07:35:23.246Z,1.13
2018-12-23T07:39:53.589Z,0.93
2018-12-23T07:44:23.330Z,1.10
2018-12-23T07:48:53.753Z,1.00
2018-12-23T07:53:23.936Z,1.20
2018-12-23T07:57:54.170Z,1.30
2018-12-23T08:02:24.759Z,1.50
2018-12-23T08:06:55.194Z,1.10
2018-12-23T08:11:25.323Z,1.03
2018-12-23T08:15:55.554Z,1.00
2018-12-23T08:20:25.667Z,1.10
2018-12-23T08:24:57.263Z,1.20
2018-12-23T08:29:29.167Z,1.20
2018-12-23T08:33:59.417Z,1.53
2018-12-23T08:38:29.738Z,0.97
2018-12-23T08:42:59.835Z,1.10
2018-12-23T08:47:29.496Z,1.10
2018-12-23T08:51:59.934Z,1.10
2018-12-23T08:56:30.103Z,1.63
2018-12-23T09:01:00.057Z,1.60
2018-12-23T09:05:29.878Z,1.30
2018-12-23T09:09:59.980Z,1.60
2018-12-23T09:14:30.150Z,1.40
2018-12-23T09:19:00.804Z,1.10
2018-12-23T09:23:31.271Z,0.93
2018-12-23T09:28:00.904Z,0.93
2018-12-23T09:32:30.950Z,1.23
2018-12-23T09:37:00.943Z,1.00
2018-12-23T09:41:31.579Z,1.10
2018-12-23T09:46:01.820Z,1.00
2018-12-23T09:50:31.590Z,1.00
2018-12-23T09:55:01.798Z,1.20
2018-12-23T09:59:31.666Z,1.00
2018-12-23T10:04:02.341Z,0.90
2018-12-23T10:08:32.801Z,0.90
2018-12-23T10:13:02.517Z,1.00
2018-12-23T10:17:33.052Z,1.10
2018-12-23T10:22:03.367Z,1.27
2018-12-23T10:26:37.459Z,2.10
2018-12-23T10:31:07.377Z,1.40
2018-12-23T10:35:37.799Z,1.20
2018-12-23T10:40:08.690Z,1.30
2018-12-23T10:44:39.336Z,1.30
2018-12-23T10:49:09.579Z,1.10
2018-12-23T10:53:39.884Z,1.40
2018-12-23T10:58:10.377Z,1.07
2018-12-23T11:02:40.916Z,1.00
2018-12-23T11:07:11.590Z,1.27
2018-12-23T11:11:41.585Z,1.10
2018-12-23T11:16:11.498Z,1.00
2018-12-23T11:20:41.249Z,1.57
2018-12-23T11:25:11.173Z,1.33
2018-12-23T11:29:41.157Z,1.10
2018-12-23T11:34:11.469Z,1.23
2018-12-23T11:38:41.721Z,1.30
2018-12-23T11:43:12.217Z,1.57
2018-12-23T11:47:42.757Z,1.40
2018-12-23T11:52:12.501Z,1.43
2018-12-23T11:56:42.678Z,1.10
2018-12-23T12:01:13.749Z,0.90
2018-12-23T12:05:44.362Z,1.50
2018-12-23T12:10:14.968Z,1.10
2018-12-23T12:14:44.905Z,1.30
2018-12-23T12:19:03.652Z,1.10
2018-12-23T12:23:34.365Z,0.90
2018-12-23T12:28:04.466Z,0.93
2018-12-23T12:32:34.485Z,1.10
2018-12-23T12:37:04.615Z,1.00
2018-12-23T12:41:34.787Z,0.97
2018-12-23T12:46:05.487Z,1.03
2018-12-23T12:50:35.580Z,1.00
2018-12-23T12:55:05.907Z,1.07
2018-12-23T12:59:36.476Z,0.90
2018-12-23T13:04:05.763Z,1.93
2018-12-23T13:08:35.817Z,1.10
2018-12-23T13:13:06.193Z,0.90
2018-12-23T13:17:36.422Z,0.90
2018-12-23T13:22:07.048Z,0.97
2018-12-23T13:26:36.880Z,1.03
2018-12-23T13:31:06.955Z,1.03
2018-12-23T13:35:37.213Z,0.90
2018-12-23T13:40:25.953Z,1.30
2018-12-23T13:45:38.651Z,1.10
2018-12-23T13:50:31.692Z,1.00
2018-12-23T13:55:22.475Z,1.17
2018-12-23T14:00:15.108Z,1.00
2018-12-23T14:05:10.739Z,1.20
2018-12-23T14:10:01.226Z,2.13
2018-12-23T14:14:31.223Z,2.07
2018-12-23T14:19:01.198Z,1.60
2018-12-23T14:23:31.403Z,1.20
2018-12-23T14:28:01.727Z,1.33
2018-12-23T14:32:32.109Z,1.20
2018-12-23T14:37:01.881Z,1.07
2018-12-23T14:41:32.017Z,1.33
2018-12-23T14:46:01.812Z,1.00
2018-12-23T14:50:32.205Z,0.90
2018-12-23T14:55:02.689Z,1.00
2018-12-23T14:59:32.826Z,0.90
2018-12-23T15:04:03.644Z,0.90
2018-12-23T15:08:36.182Z,0.80
2018-12-23T15:13:04.790Z,0.90
2018-12-23T15:17:34.447Z,0.87
2018-12-23T15:22:03.468Z,1.43
2018-12-23T15:26:33.811Z,1.00
2018-12-23T15:31:04.047Z,0.80
2018-12-23T15:35:35.140Z,1.10
2018-12-23T15:40:05.589Z,0.73
2018-12-23T15:44:35.306Z,0.80
2018-12-23T15:49:05.749Z,1.00
2018-12-23T15:53:36.494Z,0.80
2018-12-23T15:58:07.081Z,0.90
2018-12-23T16:02:37.938Z,0.90
2018-12-23T16:07:08.467Z,0.70
2018-12-23T16:11:37.675Z,0.90
2018-12-23T16:16:07.976Z,0.90
2018-12-23T16:20:39.117Z,0.80
2018-12-23T16:25:09.603Z,1.00
2018-12-23T16:29:40.782Z,0.93
2018-12-23T16:34:09.507Z,0.90
2018-12-23T16:38:39.689Z,0.90
2018-12-23T16:43:09.732Z,0.90
2018-12-23T16:47:40.039Z,0.90
2018-12-23T16:52:10.229Z,0.87
2018-12-23T16:56:40.970Z,0.90
2018-12-23T17:01:09.774Z,0.90
2018-12-23T17:05:40.418Z,0.70
2018-12-23T17:10:13.673Z,0.83
2018-12-23T17:14:45.277Z,0.90
2018-12-23T17:19:13.999Z,0.90
2018-12-23T17:23:44.631Z,0.93
2018-12-23T17:28:14.346Z,0.90
2018-12-23T17:32:43.945Z,0.80
2018-12-23T17:37:14.546Z,0.90
2018-12-23T17:41:44.427Z,0.80
2018-12-23T17:46:14.568Z,0.83
2018-12-23T17:50:44.669Z,0.90
2018-12-23T17:55:15.206Z,0.90
2018-12-23T17:59:45.424Z,0.80
2018-12-23T18:04:15.601Z,0.77
2018-12-23T18:08:46.306Z,0.90
2018-12-23T18:13:16.138Z,0.90
2018-12-23T18:17:45.898Z,0.70
2018-12-23T18:22:16.486Z,0.70
2018-12-23T18:26:46.871Z,0.83
2018-12-23T18:31:16.960Z,0.70
2018-12-23T18:35:47.257Z,0.80
2018-12-23T18:40:17.682Z,0.80
2018-12-23T18:44:47.656Z,0.93
2018-12-23T18:49:18.153Z,0.90
2018-12-23T18:53:48.178Z,0.77
2018-12-23T18:58:20.202Z,0.70
2018-12-23T19:02:57.327Z,0.80
2018-12-23T19:07:28.601Z,0.70
2018-12-23T19:12:32.826Z,0.93
2018-12-23T19:17:15.263Z,0.83
2018-12-23T19:22:04.093Z,0.80
2018-12-23T19:26:55.242Z,1.00
2018-12-23T19:31:59.660Z,0.70
2018-12-23T19:36:59.993Z,0.80
2018-12-23T19:42:15.299Z,0.80
2018-12-23T19:47:01.575Z,0.90
2018-12-23T19:51:43.920Z,0.90
2018-12-23T19:56:34.083Z,0.70
2018-12-23T20:01:26.333Z,0.63
2018-12-23T20:06:17.062Z,0.80
2018-12-23T20:11:06.063Z,0.80
2018-12-23T20:15:54.840Z,0.70
2018-12-23T20:20:43.862Z,0.80
2018-12-23T20:25:33.127Z,0.70
2018-12-23T20:30:40.911Z,0.70
2018-12-23T20:35:31.479Z,0.67
2018-12-23T20:40:20.005Z,0.90
2018-12-23T20:45:09.155Z,0.90
2018-12-23T20:49:59.630Z,0.80
2018-12-23T20:54:46.957Z,0.80
2018-12-23T20:59:37.447Z,0.60
2018-12-23T21:04:26.654Z,0.63
2018-12-23T21:09:00.437Z,0.90
2018-12-23T21:13:55.699Z,0.73
2018-12-23T21:18:45.840Z,0.60
2018-12-23T21:23:34.643Z,0.80
2018-12-23T21:28:24.825Z,0.70
2018-12-23T21:33:13.691Z,0.80
2018-12-23T21:38:25.046Z,0.73
2018-12-23T21:43:15.997Z,0.70
2018-12-23T21:48:06.380Z,0.70
2018-12-23T21:52:55.395Z,0.70
2018-12-23T21:57:44.154Z,0.67
2018-12-23T22:02:26.852Z,0.67
2018-12-23T22:07:21.941Z,0.80
2018-12-23T22:12:15.497Z,0.70
2018-12-23T22:16:46.629Z,0.70
2018-12-23T22:26:06.246Z,0.60
2018-12-23T22:30:36.413Z,0.60
2018-12-23T22:35:06.087Z,0.60
2018-12-23T22:39:36.652Z,0.70
2018-12-23T22:44:07.223Z,0.77
2018-12-23T22:48:36.928Z,0.80
2018-12-23T22:53:06.903Z,0.60
2018-12-23T22:57:36.941Z,0.90
2018-12-23T23:02:06.815Z,0.70
2018-12-23T23:06:36.726Z,0.70
2018-12-23T23:11:07.231Z,0.63
2018-12-23T23:15:37.078Z,0.60
2018-12-23T23:20:07.294Z,0.73
2018-12-23T23:24:37.209Z,0.63
2018-12-23T23:29:07.881Z,0.70
2018-12-23T23:33:38.146Z,0.60
2018-12-23T23:38:08.055Z,0.53
2018-12-23T23:42:38.154Z,0.50
2018-12-23T23:47:07.719Z,0.70
2018-12-23T23:51:37.369Z,0.60
2018-12-23T23:56:07.224Z,0.60
